Terminal Aerodrome Forecast
Issued by NWS

Current Version | Previous Version | Text Only | Print | Product List | Glossary On
Versions: 1 2 3 4 5 6 7 8 9 10 11 12 13 14 15
000
FTUS44 KMAF 291700
TAFFST
TAF
KFST 291734Z 2918/3018 14008KT P6SM FEW200
     FM292100 14013G20KT P6SM FEW200
     FM300900 16011KT P6SM FEW200=

USA.gov is the U.S. government's official web portal to all federal, state and local government web resources and services.